sensor_id;sensor_type;location;lat;lon;timestamp;P1;durP1;ratioP1;P2;durP2;ratioP2
46633;SDS011;32362;49.986;8.026;2023-03-23T00:06:13;1.57;;;0.80;;
46633;SDS011;32362;49.986;8.026;2023-03-23T00:32:57;2.38;;;0.65;;
46633;SDS011;32362;49.986;8.026;2023-03-23T00:59:40;4.32;;;0.82;;
46633;SDS011;32362;49.986;8.026;2023-03-23T01:26:22;1.13;;;0.80;;
46633;SDS011;32362;49.986;8.026;2023-03-23T01:53:07;1.92;;;0.60;;
46633;SDS011;32362;49.986;8.026;2023-03-23T02:20:07;2.85;;;0.70;;
46633;SDS011;32362;49.986;8.026;2023-03-23T02:46:53;1.27;;;0.70;;
46633;SDS011;32362;49.986;8.026;2023-03-23T03:13:46;3.15;;;0.60;;
46633;SDS011;32362;49.986;8.026;2023-03-23T03:40:29;1.30;;;0.60;;
46633;SDS011;32362;49.986;8.026;2023-03-23T04:07:25;3.10;;;0.80;;
46633;SDS011;32362;49.986;8.026;2023-03-23T04:34:07;0.80;;;0.60;;
46633;SDS011;32362;49.986;8.026;2023-03-23T05:00:55;1.40;;;0.83;;
46633;SDS011;32362;49.986;8.026;2023-03-23T05:27:46;2.78;;;0.80;;
46633;SDS011;32362;49.986;8.026;2023-03-23T05:55:01;2.63;;;1.00;;
46633;SDS011;32362;49.986;8.026;2023-03-23T06:21:48;2.93;;;1.00;;
46633;SDS011;32362;49.986;8.026;2023-03-23T06:48:57;1.40;;;1.10;;
46633;SDS011;32362;49.986;8.026;2023-03-23T07:16:05;1.73;;;1.00;;
46633;SDS011;32362;49.986;8.026;2023-03-23T07:42:51;2.65;;;1.40;;
46633;SDS011;32362;49.986;8.026;2023-03-23T08:09:43;2.53;;;0.70;;
46633;SDS011;32362;49.986;8.026;2023-03-23T08:36:42;1.80;;;0.93;;
46633;SDS011;32362;49.986;8.026;2023-03-23T09:03:55;0.40;;;0.38;;
46633;SDS011;32362;49.986;8.026;2023-03-23T09:31:08;0.60;;;0.40;;
46633;SDS011;32362;49.986;8.026;2023-03-23T09:57:56;0.63;;;0.40;;
46633;SDS011;32362;49.986;8.026;2023-03-23T10:24:43;0.43;;;0.30;;
46633;SDS011;32362;49.986;8.026;2023-03-23T10:51:37;1.27;;;0.38;;
46633;SDS011;32362;49.986;8.026;2023-03-23T11:18:38;0.38;;;0.30;;
46633;SDS011;32362;49.986;8.026;2023-03-23T11:45:21;0.30;;;0.30;;
46633;SDS011;32362;49.986;8.026;2023-03-23T12:12:11;0.50;;;0.50;;
46633;SDS011;32362;49.986;8.026;2023-03-23T12:39:14;0.52;;;0.40;;
46633;SDS011;32362;49.986;8.026;2023-03-23T13:33:05;1.40;;;0.60;;
46633;SDS011;32362;49.986;8.026;2023-03-23T13:59:58;0.95;;;0.60;;
46633;SDS011;32362;49.986;8.026;2023-03-23T14:26:40;0.52;;;0.50;;
46633;SDS011;32362;49.986;8.026;2023-03-23T14:53:40;1.10;;;0.70;;
46633;SDS011;32362;49.986;8.026;2023-03-23T16:13:57;0.30;;;0.30;;
46633;SDS011;32362;49.986;8.026;2023-03-23T16:40:38;1.95;;;1.00;;
46633;SDS011;32362;49.986;8.026;2023-03-23T17:07:20;1.30;;;1.00;;
46633;SDS011;32362;49.986;8.026;2023-03-23T17:34:00;1.98;;;1.27;;
46633;SDS011;32362;49.986;8.026;2023-03-23T18:00:48;1.83;;;1.00;;
46633;SDS011;32362;49.986;8.026;2023-03-23T18:27:29;2.17;;;1.13;;
46633;SDS011;32362;49.986;8.026;2023-03-23T18:54:26;3.35;;;1.48;;
46633;SDS011;32362;49.986;8.026;2023-03-23T19:21:07;2.20;;;1.17;;
46633;SDS011;32362;49.986;8.026;2023-03-23T19:47:48;1.77;;;1.40;;
46633;SDS011;32362;49.986;8.026;2023-03-23T20:14:29;3.63;;;1.40;;
46633;SDS011;32362;49.986;8.026;2023-03-23T20:41:13;1.60;;;1.38;;
46633;SDS011;32362;49.986;8.026;2023-03-23T21:07:57;3.47;;;2.00;;
46633;SDS011;32362;49.986;8.026;2023-03-23T21:34:37;3.90;;;2.60;;
46633;SDS011;32362;49.986;8.026;2023-03-23T22:01:18;5.47;;;2.70;;
46633;SDS011;32362;49.986;8.026;2023-03-23T22:28:18;4.43;;;2.50;;
46633;SDS011;32362;49.986;8.026;2023-03-23T22:54:59;4.75;;;3.45;;
46633;SDS011;32362;49.986;8.026;2023-03-23T23:21:40;5.90;;;4.18;;
46633;SDS011;32362;49.986;8.026;2023-03-23T23:48:20;7.00;;;4.55;;
